createdAt,value
2018-08-23T00:00:36.995Z,4.22
2018-08-23T00:03:06.694Z,8.65
2018-08-23T00:05:35.246Z,5.47
2018-08-23T00:08:03.649Z,10.70
2018-08-23T00:10:32.660Z,7.70
2018-08-23T00:13:01.796Z,9.68
2018-08-23T00:15:30.178Z,6.03
2018-08-23T00:17:58.541Z,9.75
2018-08-23T00:20:26.917Z,8.48
2018-08-23T00:22:56.285Z,10.90
2018-08-23T00:25:24.944Z,13.27
2018-08-23T00:27:53.344Z,9.82
2018-08-23T00:30:21.663Z,8.93
2018-08-23T00:32:50.145Z,8.00
2018-08-23T00:35:18.475Z,14.23
2018-08-23T00:37:46.806Z,13.50
2018-08-23T00:40:15.171Z,9.60
2018-08-23T00:42:43.518Z,12.32
2018-08-23T00:45:12.877Z,12.65
2018-08-23T00:47:41.261Z,9.38
2018-08-23T00:50:09.626Z,11.65
2018-08-23T00:52:37.965Z,13.68
2018-08-23T00:55:14.397Z,10.95
2018-08-23T00:57:42.731Z,13.35
2018-08-23T01:00:11.829Z,14.35
2018-08-23T01:02:40.256Z,12.95
2018-08-23T01:05:08.737Z,11.63
2018-08-23T01:07:37.077Z,14.57
2018-08-23T01:10:05.474Z,15.60
2018-08-23T01:12:33.856Z,15.35
2018-08-23T01:15:02.232Z,14.63
2018-08-23T01:17:30.774Z,15.13
2018-08-23T01:19:59.089Z,16.52
2018-08-23T01:22:27.453Z,17.25
2018-08-23T01:24:55.821Z,17.10
2018-08-23T01:27:24.965Z,15.32
2018-08-23T01:29:53.303Z,17.52
2018-08-23T01:32:21.697Z,17.60
2018-08-23T01:34:50.039Z,16.55
2018-08-23T01:37:18.389Z,18.35
2018-08-23T01:39:46.909Z,17.00
2018-08-23T01:42:16.467Z,15.98
2018-08-23T01:44:44.806Z,13.45
2018-08-23T01:47:14.041Z,17.60
2018-08-23T01:49:42.505Z,16.33
2018-08-23T01:52:11.073Z,18.55
2018-08-23T01:54:40.283Z,14.93
2018-08-23T01:57:08.689Z,14.30
2018-08-23T01:59:37.147Z,18.80
2018-08-23T02:02:05.519Z,19.23
2018-08-23T02:04:33.995Z,16.70
2018-08-23T02:07:02.455Z,17.60
2018-08-23T02:09:30.925Z,17.77
2018-08-23T02:11:59.257Z,18.83
2018-08-23T02:14:27.633Z,16.42
2018-08-23T02:16:55.991Z,19.70
2018-08-23T02:19:24.373Z,16.90
2018-08-23T02:21:52.711Z,19.33
2018-08-23T02:24:21.095Z,19.45
2018-08-23T02:26:49.489Z,19.02
2018-08-23T02:29:18.723Z,19.80
2018-08-23T02:31:47.315Z,21.35
2018-08-23T02:34:15.670Z,20.60
2018-08-23T02:36:43.994Z,20.03
2018-08-23T02:39:12.908Z,23.48
2018-08-23T02:41:41.246Z,18.87
2018-08-23T02:44:09.615Z,22.53
2018-08-23T02:46:37.949Z,22.43
2018-08-23T02:49:06.302Z,22.57
2018-08-23T02:51:34.641Z,24.53
2018-08-23T02:54:03.055Z,23.50
2018-08-23T02:56:31.388Z,20.62
2018-08-23T02:59:00.737Z,26.55
2018-08-23T03:01:29.056Z,23.30
2018-08-23T03:03:57.399Z,25.42
2018-08-23T03:06:25.746Z,29.42
2018-08-23T03:08:54.078Z,29.23
2018-08-23T03:11:22.598Z,26.93
2018-08-23T03:13:50.989Z,27.40
2018-08-23T03:16:19.373Z,26.13
2018-08-23T03:18:47.748Z,24.20
2018-08-23T03:21:16.130Z,29.17
2018-08-23T03:23:44.506Z,28.17
2018-08-23T03:26:12.848Z,26.75
2018-08-23T03:28:41.274Z,31.75
2018-08-23T03:31:09.672Z,26.47
2018-08-23T03:33:38.120Z,29.07
2018-08-23T03:36:06.504Z,29.75
2018-08-23T03:38:34.882Z,28.02
2018-08-23T03:41:03.232Z,27.67
2018-08-23T03:43:31.881Z,26.90
2018-08-23T03:46:01.254Z,28.00
2018-08-23T03:48:29.730Z,29.93
2018-08-23T03:50:58.096Z,32.83
2018-08-23T03:53:26.434Z,32.20
2018-08-23T03:55:54.882Z,31.13
2018-08-23T03:58:23.242Z,30.77
2018-08-23T04:00:51.634Z,33.83
2018-08-23T04:03:20.167Z,35.42
2018-08-23T04:05:48.508Z,34.10
2018-08-23T04:08:16.898Z,34.00
2018-08-23T04:10:45.216Z,35.15
2018-08-23T04:13:13.562Z,38.47
2018-08-23T04:15:41.944Z,40.33
2018-08-23T04:18:10.444Z,37.73
2018-08-23T04:20:38.784Z,36.77
2018-08-23T04:23:07.130Z,39.37
2018-08-23T04:25:35.561Z,36.33
2018-08-23T04:28:03.882Z,38.00
2018-08-23T04:30:32.995Z,44.67
2018-08-23T04:33:02.164Z,44.35
2018-08-23T04:35:30.552Z,42.30
2018-08-23T04:37:59.659Z,42.37
2018-08-23T04:40:28.045Z,39.67
2018-08-23T04:42:56.848Z,41.70
2018-08-23T04:45:26.663Z,47.13
2018-08-23T04:47:55.020Z,48.67
2018-08-23T04:50:23.382Z,49.77
2018-08-23T04:52:51.924Z,48.93
2018-08-23T04:55:20.262Z,47.10
2018-08-23T04:57:49.367Z,49.43
2018-08-23T05:00:17.712Z,48.57
2018-08-23T05:02:46.072Z,48.30
2018-08-23T05:05:14.424Z,48.67
2018-08-23T05:07:42.786Z,50.43
2018-08-23T05:10:11.163Z,50.85
2018-08-23T05:12:39.530Z,50.15
2018-08-23T05:15:08.812Z,52.97
2018-08-23T05:17:37.131Z,52.10
2018-08-23T05:20:05.496Z,53.90
2018-08-23T05:22:33.828Z,51.30
2018-08-23T05:25:02.201Z,57.88
2018-08-23T05:27:30.540Z,51.03
2018-08-23T05:29:59.913Z,48.20
2018-08-23T05:32:29.653Z,54.13
2018-08-23T05:34:58.021Z,58.55
2018-08-23T05:37:26.410Z,56.13
2018-08-23T05:39:54.927Z,54.90
2018-08-23T05:42:23.276Z,52.35
2018-08-23T05:44:51.758Z,56.72
2018-08-23T05:47:20.106Z,54.92
2018-08-23T05:49:49.230Z,55.65
2018-08-23T05:52:17.573Z,57.00
2018-08-23T05:54:45.956Z,59.28
2018-08-23T05:57:14.367Z,59.35
2018-08-23T05:59:42.746Z,54.95
2018-08-23T06:02:11.099Z,59.08
2018-08-23T06:04:39.516Z,52.90
2018-08-23T06:07:07.864Z,53.58
2018-08-23T06:09:37.998Z,53.15
2018-08-23T06:12:06.326Z,50.85
2018-08-23T06:14:34.707Z,52.08
2018-08-23T06:17:03.150Z,56.50
2018-08-23T06:19:31.482Z,57.38
2018-08-23T06:21:59.938Z,56.03
2018-08-23T06:24:28.265Z,51.67
2018-08-23T06:26:56.763Z,48.05
2018-08-23T06:29:26.072Z,49.22
2018-08-23T06:31:54.429Z,57.92
2018-08-23T06:34:22.766Z,51.28
2018-08-23T06:36:51.964Z,47.75
2018-08-23T06:39:20.299Z,49.45
2018-08-23T06:41:48.659Z,47.60
2018-08-23T06:44:17.772Z,52.42
2018-08-23T06:46:46.108Z,47.22
2018-08-23T06:49:15.252Z,49.78
2018-08-23T06:51:43.592Z,48.22
2018-08-23T06:54:12.074Z,46.95
2018-08-23T06:56:40.418Z,48.13
2018-08-23T06:59:08.766Z,45.78
2018-08-23T07:01:37.098Z,49.67
2018-08-23T07:04:05.446Z,48.38
2018-08-23T07:06:33.854Z,42.65
2018-08-23T07:09:02.157Z,41.92
2018-08-23T07:11:31.800Z,47.40
2018-08-23T07:14:00.142Z,45.70
2018-08-23T07:16:28.470Z,41.92
2018-08-23T07:18:56.802Z,42.08
2018-08-23T07:21:25.931Z,45.03
2018-08-23T07:23:54.272Z,46.15
2018-08-23T07:26:23.456Z,44.70
2018-08-23T07:28:51.974Z,43.85
2018-08-23T07:31:20.320Z,44.25
2018-08-23T07:33:48.672Z,45.65
2018-08-23T07:36:20.929Z,42.53
2018-08-23T07:38:49.300Z,43.80
2018-08-23T07:41:17.774Z,43.03
2018-08-23T07:43:46.112Z,46.35
2018-08-23T07:46:15.328Z,44.58
2018-08-23T07:48:44.490Z,43.50
2018-08-23T07:51:13.003Z,42.58
2018-08-23T07:53:41.416Z,39.80
2018-08-23T07:56:09.756Z,44.70
2018-08-23T07:58:38.954Z,44.63
2018-08-23T08:01:08.060Z,48.78
2018-08-23T08:03:37.277Z,42.88
2018-08-23T08:06:05.658Z,42.40
2018-08-23T08:08:34.022Z,44.55
2018-08-23T08:11:02.367Z,46.72
2018-08-23T08:13:30.927Z,48.13
2018-08-23T08:15:59.276Z,39.35
2018-08-23T08:18:27.636Z,47.05
2018-08-23T08:20:56.802Z,44.67
2018-08-23T08:23:25.864Z,45.90
2018-08-23T08:25:54.228Z,43.05
2018-08-23T08:28:22.643Z,40.33
2018-08-23T08:30:50.955Z,46.72
2018-08-23T08:33:20.070Z,40.63
2018-08-23T08:35:49.099Z,41.20
2018-08-23T08:38:17.407Z,40.15
2018-08-23T08:40:45.773Z,37.92
2018-08-23T08:43:14.095Z,40.83
2018-08-23T08:45:43.229Z,36.70
2018-08-23T08:48:11.555Z,40.05
2018-08-23T08:50:39.919Z,33.38
2018-08-23T08:53:08.405Z,34.65
2018-08-23T08:55:36.761Z,39.08
2018-08-23T08:58:05.107Z,37.75
2018-08-23T09:00:33.455Z,42.85
2018-08-23T09:03:01.926Z,42.38
2018-08-23T09:05:30.283Z,37.80
2018-08-23T09:07:59.407Z,41.17
2018-08-23T09:10:27.787Z,36.47
2018-08-23T09:12:56.131Z,38.03
2018-08-23T09:15:24.463Z,39.67
2018-08-23T09:17:52.806Z,41.28
2018-08-23T09:20:21.194Z,36.88
2018-08-23T09:22:49.521Z,37.03
2018-08-23T09:25:17.910Z,39.17
2018-08-23T09:27:46.211Z,33.80
2018-08-23T09:30:14.571Z,33.30
2018-08-23T09:32:42.949Z,30.80
2018-08-23T09:35:11.424Z,35.13
2018-08-23T09:37:39.713Z,33.25
2018-08-23T09:40:08.066Z,32.35
2018-08-23T09:42:36.423Z,33.60
2018-08-23T09:45:05.688Z,31.48
2018-08-23T09:47:34.005Z,30.65
2018-08-23T09:50:03.157Z,32.35
2018-08-23T09:52:32.085Z,37.53
2018-08-23T09:55:01.211Z,28.75
2018-08-23T09:57:29.629Z,28.87
2018-08-23T09:59:58.073Z,27.45
2018-08-23T10:05:21.343Z,30.03
2018-08-23T10:07:49.687Z,30.52
2018-08-23T10:10:18.033Z,24.85
2018-08-23T10:15:42.417Z,26.40
2018-08-23T10:21:11.885Z,40.60
2018-08-23T10:23:40.228Z,25.52
2018-08-23T10:26:08.598Z,27.77
2018-08-23T10:28:36.923Z,23.75
2018-08-23T10:31:05.332Z,20.73
2018-08-23T10:33:34.470Z,28.77
2018-08-23T10:36:03.114Z,25.55
2018-08-23T10:38:31.492Z,24.58
2018-08-23T10:41:00.618Z,26.52
2018-08-23T10:43:28.998Z,23.73
2018-08-23T10:45:57.329Z,21.30
2018-08-23T10:48:25.683Z,19.60
2018-08-23T10:50:54.036Z,21.80
2018-08-23T10:53:22.421Z,21.30
2018-08-23T10:55:50.900Z,21.65
2018-08-23T10:58:19.278Z,29.35
2018-08-23T11:00:47.681Z,23.65
2018-08-23T11:03:16.058Z,19.73
2018-08-23T11:05:44.381Z,20.50
2018-08-23T11:08:12.715Z,20.45
2018-08-23T11:13:49.949Z,20.95
2018-08-23T11:16:18.272Z,24.45
2018-08-23T11:18:52.378Z,18.52
2018-08-23T11:21:20.723Z,21.60
2018-08-23T11:23:49.876Z,18.42
2018-08-23T11:26:18.234Z,25.20
2018-08-23T11:28:47.638Z,19.37
2018-08-23T11:31:15.983Z,20.88
2018-08-23T11:33:44.336Z,21.08
2018-08-23T11:36:13.020Z,21.75
2018-08-23T11:38:41.379Z,19.25
2018-08-23T11:41:09.756Z,17.87
2018-08-23T11:43:38.235Z,21.35
2018-08-23T11:46:06.591Z,21.48
2018-08-23T11:48:35.719Z,22.25
2018-08-23T11:51:04.305Z,18.95
2018-08-23T11:53:32.865Z,20.65
2018-08-23T11:56:01.034Z,19.25
2018-08-23T11:58:30.263Z,18.65
2018-08-23T12:00:58.595Z,14.30
2018-08-23T12:03:27.967Z,15.55
2018-08-23T12:05:56.355Z,14.10
2018-08-23T12:08:24.819Z,11.85
2018-08-23T12:10:53.193Z,13.98
2018-08-23T12:13:21.537Z,16.08
2018-08-23T12:15:49.875Z,16.35
2018-08-23T12:18:18.285Z,14.77
2018-08-23T12:20:46.599Z,13.68
2018-08-23T12:23:14.965Z,16.37
2018-08-23T12:25:43.413Z,11.75
2018-08-23T12:28:11.823Z,12.30
2018-08-23T12:30:40.359Z,12.60
2018-08-23T12:33:08.797Z,14.48
2018-08-23T12:35:37.161Z,16.55
2018-08-23T12:43:58.155Z,14.07
2018-08-23T12:46:26.514Z,11.20
2018-08-23T12:48:54.868Z,12.93
2018-08-23T12:51:23.339Z,12.98
2018-08-23T12:53:51.707Z,11.82
2018-08-23T12:56:20.863Z,11.95
2018-08-23T12:58:49.212Z,10.35
2018-08-23T13:01:17.597Z,10.27
2018-08-23T13:03:46.021Z,10.32
2018-08-23T13:06:14.355Z,11.68
2018-08-23T13:08:42.731Z,8.82
2018-08-23T13:11:11.176Z,9.68
2018-08-23T13:13:40.019Z,9.13
2018-08-23T13:16:08.384Z,8.05
2018-08-23T13:18:36.757Z,10.75
2018-08-23T13:21:05.169Z,9.30
2018-08-23T13:23:33.513Z,9.30
2018-08-23T13:26:01.840Z,9.50
2018-08-23T13:28:30.384Z,8.95
2018-08-23T13:30:58.756Z,8.50
2018-08-23T13:33:27.102Z,9.38
2018-08-23T13:35:55.518Z,8.40
2018-08-23T13:38:23.893Z,11.23
2018-08-23T13:40:52.780Z,9.73
2018-08-23T13:43:21.132Z,11.52
2018-08-23T13:45:49.584Z,12.40
2018-08-23T13:48:17.942Z,12.50
2018-08-23T13:50:46.316Z,12.93
2018-08-23T13:53:14.794Z,11.63
2018-08-23T13:55:43.166Z,12.18
2018-08-23T13:58:11.508Z,13.68
2018-08-23T14:00:39.920Z,13.35
2018-08-23T14:03:08.640Z,10.43
2018-08-23T14:05:36.952Z,12.88
2018-08-23T14:08:05.316Z,12.27
2018-08-23T14:10:33.658Z,12.13
2018-08-23T14:13:02.942Z,13.70
2018-08-23T14:15:31.274Z,12.52
2018-08-23T14:17:59.629Z,12.32
2018-08-23T14:20:27.962Z,13.00
2018-08-23T14:22:57.133Z,12.60
2018-08-23T14:25:25.673Z,11.85
2018-08-23T14:27:54.007Z,11.95
2018-08-23T14:30:23.165Z,13.45
2018-08-23T14:32:51.501Z,13.38
2018-08-23T14:35:20.639Z,15.25
2018-08-23T14:37:48.982Z,12.65
2018-08-23T14:40:19.400Z,16.10
2018-08-23T14:42:47.668Z,16.75
2018-08-23T14:45:16.797Z,14.73
2018-08-23T14:50:40.239Z,14.20
2018-08-23T14:53:08.768Z,18.52
2018-08-23T14:55:37.101Z,13.35
2018-08-23T14:58:05.447Z,16.92
2018-08-23T15:00:33.978Z,13.65
2018-08-23T15:03:03.079Z,14.77
2018-08-23T15:05:32.199Z,15.13
2018-08-23T15:08:00.558Z,14.38
2018-08-23T15:10:30.718Z,15.68
2018-08-23T15:12:59.121Z,15.00
2018-08-23T15:15:27.528Z,16.55
2018-08-23T15:17:56.771Z,15.52
2018-08-23T15:20:25.163Z,14.45
2018-08-23T15:22:53.666Z,15.65
2018-08-23T15:25:22.022Z,14.02
2018-08-23T15:27:50.410Z,12.65
2018-08-23T15:30:18.821Z,13.10
2018-08-23T15:32:47.380Z,13.40
2018-08-23T15:35:15.732Z,11.80
2018-08-23T15:37:44.126Z,11.88
2018-08-23T15:40:12.430Z,11.57
2018-08-23T15:42:40.872Z,14.38
2018-08-23T15:45:09.228Z,11.10
2018-08-23T15:47:37.946Z,11.07
2018-08-23T15:50:06.331Z,11.20
2018-08-23T15:52:34.752Z,11.18
2018-08-23T15:55:03.247Z,10.95
2018-08-23T15:57:31.474Z,11.12
2018-08-23T15:59:59.937Z,10.95
2018-08-23T16:02:29.156Z,10.18
2018-08-23T16:04:57.510Z,10.30
2018-08-23T16:07:25.868Z,10.38
2018-08-23T16:09:54.249Z,12.55
2018-08-23T16:12:22.626Z,10.35
2018-08-23T16:14:51.050Z,10.70
2018-08-23T16:23:16.532Z,11.27
2018-08-23T16:25:44.986Z,12.63
2018-08-23T16:28:13.327Z,9.75
2018-08-23T16:30:41.707Z,11.48
2018-08-23T16:33:10.120Z,9.75
2018-08-23T16:35:38.495Z,11.30
2018-08-23T16:38:07.000Z,11.43
2018-08-23T16:40:35.662Z,12.73
2018-08-23T16:43:03.977Z,10.60
2018-08-23T16:45:32.310Z,11.57
2018-08-23T16:48:00.665Z,11.52
2018-08-23T16:50:29.013Z,10.43
2018-08-23T16:52:57.436Z,10.38
2018-08-23T16:55:25.826Z,11.48
2018-08-23T16:57:54.178Z,13.10
2018-08-23T17:00:22.525Z,10.38
2018-08-23T17:02:50.959Z,11.82
2018-08-23T17:05:19.301Z,10.15
2018-08-23T17:07:48.429Z,10.57
2018-08-23T17:10:16.815Z,10.35
2018-08-23T17:12:45.183Z,9.65
2018-08-23T17:15:13.698Z,11.40
2018-08-23T17:17:41.995Z,9.43
2018-08-23T17:20:10.442Z,10.48
2018-08-23T17:22:38.779Z,10.65
2018-08-23T17:25:08.233Z,11.18
2018-08-23T17:27:36.597Z,11.60
2018-08-23T17:30:04.981Z,10.63
2018-08-23T17:32:33.360Z,11.48
2018-08-23T17:35:01.746Z,11.40
2018-08-23T17:37:30.173Z,11.43
2018-08-23T17:39:59.318Z,11.65
2018-08-23T17:42:27.734Z,12.37
2018-08-23T17:44:56.100Z,12.10
2018-08-23T17:47:24.470Z,11.82
2018-08-23T17:49:53.429Z,12.13
2018-08-23T17:52:22.742Z,11.48
2018-08-23T17:54:51.850Z,11.27
2018-08-23T17:57:20.202Z,11.43
2018-08-23T17:59:48.629Z,12.25
2018-08-23T18:02:17.008Z,13.25
2018-08-23T18:04:45.479Z,12.35
2018-08-23T18:07:13.870Z,12.10
2018-08-23T18:09:42.209Z,11.38
2018-08-23T18:12:10.588Z,11.12
2018-08-23T18:14:38.938Z,11.12
2018-08-23T18:17:08.189Z,11.77
2018-08-23T18:19:36.557Z,11.77
2018-08-23T18:22:05.018Z,10.63
2018-08-23T18:24:33.638Z,10.43
2018-08-23T18:27:01.971Z,10.32
2018-08-23T18:29:31.080Z,10.68
2018-08-23T18:31:59.547Z,21.02
2018-08-23T18:34:27.840Z,17.02
2018-08-23T18:36:56.177Z,12.25
2018-08-23T18:39:24.608Z,11.00
2018-08-23T18:41:52.967Z,11.27
2018-08-23T18:44:21.418Z,9.60
2018-08-23T18:46:49.776Z,10.43
2018-08-23T18:49:18.331Z,10.50
2018-08-23T18:51:46.718Z,10.30
2018-08-23T18:54:15.292Z,11.75
2018-08-23T18:56:43.610Z,11.23
2018-08-23T18:59:12.114Z,11.65
2018-08-23T19:01:40.464Z,10.75
2018-08-23T19:04:08.802Z,15.18
2018-08-23T19:06:37.171Z,11.20
2018-08-23T19:09:06.292Z,11.98
2018-08-23T19:11:34.627Z,12.00
2018-08-23T19:14:02.992Z,12.85
2018-08-23T19:16:31.326Z,11.80
2018-08-23T19:18:59.766Z,10.77
2018-08-23T19:21:28.090Z,10.85
2018-08-23T19:23:56.446Z,10.57
2018-08-23T19:26:24.788Z,11.25
2018-08-23T19:28:53.227Z,10.95
2018-08-23T19:31:21.593Z,11.75
2018-08-23T19:33:50.719Z,12.23
2018-08-23T19:36:19.079Z,11.60
2018-08-23T19:38:47.493Z,11.98
2018-08-23T19:41:15.865Z,11.02
2018-08-23T19:43:44.214Z,11.30
2018-08-23T19:46:12.584Z,12.23
2018-08-23T19:48:40.989Z,11.12
2018-08-23T19:51:10.076Z,10.80
2018-08-23T19:53:38.450Z,10.18
2018-08-23T19:56:07.546Z,10.73
2018-08-23T19:58:36.712Z,22.52
2018-08-23T20:01:06.148Z,18.62
2018-08-23T20:03:34.504Z,13.20
2018-08-23T20:06:03.620Z,12.43
2018-08-23T20:08:31.978Z,11.05
2018-08-23T20:11:01.078Z,12.37
2018-08-23T20:13:29.441Z,11.45
2018-08-23T20:15:58.588Z,10.25
2018-08-23T20:18:27.990Z,10.07
2018-08-23T20:20:56.320Z,9.43
2018-08-23T20:23:24.734Z,9.30
2018-08-23T20:25:53.113Z,10.93
2018-08-23T20:28:21.484Z,11.35
2018-08-23T20:30:49.838Z,10.98
2018-08-23T20:33:18.254Z,10.95
2018-08-23T20:35:46.595Z,12.27
2018-08-23T20:38:15.727Z,15.52
2018-08-23T20:40:44.087Z,12.57
2018-08-23T20:43:12.461Z,12.43
2018-08-23T20:45:41.581Z,12.95
2018-08-23T20:48:09.938Z,13.27
2018-08-23T20:50:39.075Z,15.75
2018-08-23T20:53:07.436Z,13.40
2018-08-23T20:55:36.674Z,11.93
2018-08-23T20:58:05.796Z,16.95
2018-08-23T21:00:34.108Z,16.42
2018-08-23T21:03:02.471Z,13.90
2018-08-23T21:05:30.828Z,17.10
2018-08-23T21:07:59.218Z,18.83
2018-08-23T21:10:28.350Z,17.02
2018-08-23T21:12:56.685Z,18.20
2018-08-23T21:15:26.012Z,17.17
2018-08-23T21:17:55.172Z,18.00
2018-08-23T21:20:23.460Z,20.65
2018-08-23T21:22:52.711Z,16.42
2018-08-23T21:25:21.081Z,18.55
2018-08-23T21:27:49.419Z,18.87
2018-08-23T21:30:18.524Z,17.20
2018-08-23T21:32:47.752Z,17.27
2018-08-23T21:35:16.105Z,23.27
2018-08-23T21:37:44.798Z,23.40
2018-08-23T21:40:13.909Z,20.30
2018-08-23T21:42:42.331Z,18.75
2018-08-23T21:45:10.666Z,17.48
2018-08-23T21:47:39.051Z,22.20
2018-08-23T21:50:07.393Z,18.42
2018-08-23T21:52:35.728Z,18.08
2018-08-23T21:55:04.092Z,18.58
2018-08-23T21:57:32.431Z,20.23
2018-08-23T22:00:02.390Z,22.75
2018-08-23T22:02:30.752Z,19.37
2018-08-23T22:04:59.100Z,21.90
2018-08-23T22:07:27.430Z,22.52
2018-08-23T22:09:56.427Z,22.42
2018-08-23T22:12:24.745Z,21.55
2018-08-23T22:14:53.164Z,18.12
2018-08-23T22:17:21.829Z,21.08
2018-08-23T22:19:50.224Z,21.58
2018-08-23T22:22:19.331Z,21.08
2018-08-23T22:24:47.678Z,19.62
2018-08-23T22:27:16.121Z,20.40
2018-08-23T22:29:44.444Z,22.75
2018-08-23T22:32:13.555Z,19.20
2018-08-23T22:34:41.966Z,18.12
2018-08-23T22:37:10.297Z,17.85
2018-08-23T22:39:39.496Z,19.92
2018-08-23T22:42:07.799Z,22.60
2018-08-23T22:44:36.256Z,19.02
2018-08-23T22:47:04.825Z,18.23
2018-08-23T22:49:33.155Z,23.55
2018-08-23T22:52:01.529Z,24.10
2018-08-23T22:54:29.849Z,21.67
2018-08-23T22:56:58.227Z,21.40
2018-08-23T22:59:26.664Z,26.15
2018-08-23T23:01:55.217Z,23.12
2018-08-23T23:04:26.227Z,21.77
2018-08-23T23:06:54.547Z,22.27
2018-08-23T23:09:24.077Z,20.80
2018-08-23T23:11:53.167Z,21.50
2018-08-23T23:14:21.542Z,21.05
2018-08-23T23:16:49.923Z,21.83
2018-08-23T23:19:18.297Z,23.23
2018-08-23T23:21:47.649Z,19.77
2018-08-23T23:24:15.995Z,18.75
2018-08-23T23:26:44.358Z,19.92
2018-08-23T23:29:12.701Z,17.83
2018-08-23T23:31:41.041Z,16.58
2018-08-23T23:34:09.388Z,16.83
2018-08-23T23:36:37.743Z,16.08
2018-08-23T23:39:06.842Z,16.73
2018-08-23T23:41:36.043Z,17.60
2018-08-23T23:44:05.208Z,19.80
2018-08-23T23:46:33.533Z,20.17
2018-08-23T23:49:01.890Z,16.95
2018-08-23T23:51:30.994Z,20.40
2018-08-23T23:54:00.112Z,16.55
2018-08-23T23:56:28.492Z,17.67
2018-08-23T23:58:56.872Z,14.27
